createdAt,value
2022-09-06T00:00:04.853Z,17.15
2022-09-06T00:00:51.755Z,17.11
2022-09-06T00:01:25.877Z,17.26
2022-09-06T00:02:12.747Z,17.15
2022-09-06T00:02:47.856Z,17.05
2022-09-06T00:03:27.793Z,17.21
2022-09-06T00:04:10.714Z,17.12
2022-09-06T00:04:55.743Z,16.95
2022-09-06T00:05:37.884Z,16.98
2022-09-06T00:06:21.724Z,17.01
2022-09-06T00:07:01.781Z,16.99
2022-09-06T00:07:42.716Z,16.92
2022-09-06T00:08:22.842Z,16.99
2022-09-06T00:09:02.751Z,16.97
2022-09-06T00:09:42.840Z,17.01
2022-09-06T00:10:23.773Z,16.97
2022-09-06T00:11:04.885Z,16.88
2022-09-06T00:11:45.735Z,17.00
2022-09-06T00:12:25.836Z,16.91
2022-09-06T00:13:14.722Z,16.97
2022-09-06T00:13:55.801Z,17.04
2022-09-06T00:14:35.770Z,17.03
2022-09-06T00:15:16.769Z,17.07
2022-09-06T00:15:57.802Z,16.97
2022-09-06T00:16:40.654Z,17.04
2022-09-06T00:17:20.733Z,17.03
2022-09-06T00:18:00.843Z,16.97
2022-09-06T00:18:40.744Z,16.90
2022-09-06T00:19:20.849Z,16.99
2022-09-06T00:20:01.778Z,16.92
2022-09-06T00:20:44.773Z,16.99
2022-09-06T00:21:27.722Z,16.97
2022-09-06T00:22:07.830Z,16.94
2022-09-06T00:22:48.733Z,16.90
2022-09-06T00:23:28.796Z,16.90
2022-09-06T00:24:10.709Z,16.86
2022-09-06T00:24:50.774Z,16.97
2022-09-06T00:25:31.758Z,16.93
2022-09-06T00:26:25.726Z,17.04
2022-09-06T00:27:21.719Z,17.03
2022-09-06T00:28:19.693Z,16.95
2022-09-06T00:29:13.750Z,16.97
2022-09-06T00:30:07.718Z,16.95
2022-09-06T00:30:54.763Z,16.90
2022-09-06T00:31:32.688Z,16.72
2022-09-06T00:32:19.712Z,16.81
2022-09-06T00:32:53.769Z,16.88
2022-09-06T00:33:40.724Z,16.86
2022-09-06T00:34:14.768Z,16.90
2022-09-06T00:35:01.711Z,16.93
2022-09-06T00:35:35.786Z,16.89
2022-09-06T00:36:17.805Z,16.92
2022-09-06T00:36:57.800Z,16.86
2022-09-06T00:37:38.725Z,16.91
2022-09-06T00:38:18.754Z,16.88
2022-09-06T00:38:58.693Z,16.76
2022-09-06T00:39:38.820Z,16.81
2022-09-06T00:40:19.717Z,16.81
2022-09-06T00:40:59.810Z,16.80
2022-09-06T00:41:39.732Z,16.81
2022-09-06T00:42:20.799Z,16.71
2022-09-06T00:43:02.699Z,16.68
2022-09-06T00:43:42.851Z,16.76
2022-09-06T00:44:22.701Z,16.75
2022-09-06T00:45:02.848Z,16.76
2022-09-06T00:45:42.684Z,16.72
2022-09-06T00:46:29.778Z,16.68
2022-09-06T00:47:10.739Z,16.58
2022-09-06T00:47:50.741Z,16.49
2022-09-06T00:48:31.730Z,16.57
2022-09-06T00:49:24.314Z,16.60
2022-09-06T00:50:06.705Z,16.48
2022-09-06T00:50:46.879Z,16.59
2022-09-06T00:51:28.720Z,16.55
2022-09-06T00:52:18.720Z,16.60
2022-09-06T00:53:12.694Z,16.63
2022-09-06T00:54:06.678Z,16.63
2022-09-06T00:55:01.736Z,16.58
2022-09-06T00:55:56.709Z,16.55
2022-09-06T00:56:55.717Z,16.45
2022-09-06T00:57:42.725Z,16.44
2022-09-06T00:58:16.766Z,16.50
2022-09-06T00:59:03.685Z,16.54
2022-09-06T00:59:39.754Z,16.59
2022-09-06T01:00:27.683Z,16.58
2022-09-06T01:01:01.884Z,16.57
2022-09-06T01:01:49.774Z,16.54
2022-09-06T01:02:23.955Z,16.53
2022-09-06T01:03:04.708Z,16.47
2022-09-06T01:03:38.633Z,16.40
2022-09-06T01:04:26.705Z,16.41
2022-09-06T01:05:00.564Z,16.45
2022-09-06T01:06:16.704Z,16.46
2022-09-06T01:07:17.920Z,16.46
2022-09-06T01:08:39.739Z,16.53
2022-09-06T01:09:58.948Z,16.53
2022-09-06T01:11:09.681Z,16.50
2022-09-06T01:12:20.361Z,16.51
2022-09-06T01:14:02.738Z,16.42
2022-09-06T01:15:14.735Z,16.41
2022-09-06T01:16:37.716Z,16.40
2022-09-06T01:17:35.107Z,16.31
2022-09-06T01:18:45.688Z,16.33
2022-09-06T01:19:58.747Z,16.34
2022-09-06T01:21:14.809Z,16.20
2022-09-06T01:22:28.678Z,16.15
2022-09-06T01:23:22.720Z,16.04
2022-09-06T01:24:20.691Z,16.01
2022-09-06T01:25:26.713Z,15.98
2022-09-06T01:26:22.255Z,15.96
2022-09-06T01:27:24.653Z,15.93
2022-09-06T01:28:31.152Z,15.97
2022-09-06T01:29:46.698Z,16.02
2022-09-06T01:30:21.190Z,15.95
2022-09-06T01:31:42.714Z,15.89
2022-09-06T01:32:57.781Z,15.95
2022-09-06T01:34:03.682Z,16.07
2022-09-06T01:34:58.833Z,16.00
2022-09-06T01:35:54.678Z,15.92
2022-09-06T01:37:10.362Z,15.78
2022-09-06T01:38:04.670Z,15.82
2022-09-06T01:38:58.659Z,15.81
2022-09-06T01:39:54.689Z,15.85
2022-09-06T01:40:48.673Z,15.82
2022-09-06T01:41:43.654Z,15.79
2022-09-06T01:42:33.696Z,15.89
2022-09-06T01:43:10.802Z,15.77
2022-09-06T01:43:58.649Z,15.87
2022-09-06T01:44:34.710Z,15.79
2022-09-06T01:45:24.831Z,15.89
2022-09-06T01:46:33.750Z,15.89
2022-09-06T01:47:41.674Z,15.84
2022-09-06T01:48:31.788Z,15.81
2022-09-06T01:49:39.640Z,15.79
2022-09-06T01:50:22.861Z,15.78
2022-09-06T01:51:29.629Z,15.68
2022-09-06T01:52:15.034Z,15.66
2022-09-06T01:53:50.686Z,15.70
2022-09-06T01:54:35.754Z,15.76
2022-09-06T01:55:29.693Z,15.77
2022-09-06T01:56:53.690Z,15.77
2022-09-06T01:58:01.701Z,15.76
2022-09-06T01:59:10.674Z,15.79
2022-09-06T02:00:19.649Z,15.76
2022-09-06T02:01:41.706Z,15.69
2022-09-06T02:02:55.693Z,15.63
2022-09-06T02:04:07.618Z,15.60
2022-09-06T02:05:03.643Z,15.54
2022-09-06T02:05:52.669Z,15.55
2022-09-06T02:06:39.645Z,15.53
2022-09-06T02:07:33.758Z,15.55
2022-09-06T02:08:19.640Z,15.49
2022-09-06T02:09:22.730Z,15.60
2022-09-06T02:10:32.641Z,15.57
2022-09-06T02:11:15.669Z,15.48
2022-09-06T02:12:03.610Z,15.31
2022-09-06T02:12:47.733Z,15.28
2022-09-06T02:13:29.625Z,15.35
2022-09-06T02:14:15.678Z,15.34
2022-09-06T02:15:11.617Z,15.44
2022-09-06T02:15:58.666Z,15.48
2022-09-06T02:16:34.693Z,15.40
2022-09-06T02:17:25.612Z,15.38
2022-09-06T02:18:10.698Z,15.40
2022-09-06T02:19:19.597Z,15.43
2022-09-06T02:20:05.867Z,15.38
2022-09-06T02:20:58.657Z,15.45
2022-09-06T02:21:40.089Z,15.41
2022-09-06T02:22:29.615Z,15.43
2022-09-06T02:23:05.661Z,15.46
2022-09-06T02:23:53.601Z,15.49
2022-09-06T02:24:38.755Z,15.51
2022-09-06T02:25:34.629Z,15.40
2022-09-06T02:26:51.649Z,15.47
2022-09-06T02:27:46.600Z,15.47
2022-09-06T02:28:40.606Z,15.42
2022-09-06T02:29:34.595Z,15.42
2022-09-06T02:30:28.650Z,15.36
2022-09-06T02:31:39.606Z,15.36
2022-09-06T02:32:29.614Z,15.34
2022-09-06T02:33:16.657Z,15.30
2022-09-06T02:33:57.605Z,15.28
2022-09-06T02:34:37.666Z,15.31
2022-09-06T02:35:21.589Z,15.21
2022-09-06T02:36:02.661Z,15.20
2022-09-06T02:36:43.590Z,15.22
2022-09-06T02:37:26.088Z,15.28
2022-09-06T02:38:06.690Z,15.32
2022-09-06T02:38:47.694Z,15.34
2022-09-06T02:39:28.627Z,15.35
2022-09-06T02:40:08.968Z,15.34
2022-09-06T02:40:49.619Z,15.30
2022-09-06T02:41:31.031Z,15.23
2022-09-06T02:42:11.603Z,15.27
2022-09-06T02:42:51.741Z,15.14
2022-09-06T02:43:32.613Z,15.16
2022-09-06T02:44:12.712Z,15.07
2022-09-06T02:44:53.577Z,15.11
2022-09-06T02:45:47.634Z,15.10
2022-09-06T02:46:41.582Z,15.16
2022-09-06T02:47:35.576Z,15.14
2022-09-06T02:48:29.596Z,15.16
2022-09-06T02:49:10.604Z,15.22
2022-09-06T02:49:50.665Z,15.19
2022-09-06T02:50:30.575Z,15.18
2022-09-06T02:51:12.680Z,15.10
2022-09-06T02:51:53.611Z,15.12
2022-09-06T02:52:33.664Z,15.01
2022-09-06T02:53:17.585Z,15.08
2022-09-06T02:53:57.635Z,15.13
2022-09-06T02:54:38.619Z,15.10
2022-09-06T02:55:18.670Z,15.06
2022-09-06T02:55:58.588Z,14.96
2022-09-06T02:56:39.887Z,15.10
2022-09-06T02:57:19.568Z,15.08
2022-09-06T02:57:59.648Z,14.97
2022-09-06T02:58:39.577Z,15.09
2022-09-06T02:59:19.642Z,15.14
2022-09-06T03:00:00.611Z,15.10
2022-09-06T03:00:41.633Z,15.09
2022-09-06T03:01:21.631Z,15.11
2022-09-06T03:02:01.676Z,15.08
2022-09-06T03:02:41.604Z,14.99
2022-09-06T03:03:21.613Z,15.06
2022-09-06T03:04:02.567Z,14.99
2022-09-06T03:04:42.627Z,14.91
2022-09-06T03:05:23.604Z,14.88
2022-09-06T03:06:03.636Z,14.93
2022-09-06T03:06:43.569Z,14.92
2022-09-06T03:07:23.705Z,14.82
2022-09-06T03:08:04.561Z,14.77
2022-09-06T03:08:44.621Z,14.88
2022-09-06T03:09:24.551Z,14.84
2022-09-06T03:10:05.491Z,14.77
2022-09-06T03:10:46.615Z,14.89
2022-09-06T03:11:26.647Z,14.83
2022-09-06T03:12:06.576Z,14.86
2022-09-06T03:12:48.628Z,14.95
2022-09-06T03:13:30.564Z,14.69
2022-09-06T03:14:10.729Z,14.83
2022-09-06T03:14:54.727Z,14.83
2022-09-06T03:15:35.618Z,14.78
2022-09-06T03:16:16.669Z,14.73
2022-09-06T03:16:56.913Z,14.88
2022-09-06T03:17:37.554Z,14.79
2022-09-06T03:18:18.644Z,14.85
2022-09-06T03:18:58.568Z,14.85
2022-09-06T03:19:38.620Z,14.92
2022-09-06T03:20:19.576Z,14.83
2022-09-06T03:21:00.640Z,14.90
2022-09-06T03:21:41.589Z,14.85
2022-09-06T03:22:21.669Z,14.83
2022-09-06T03:23:02.544Z,14.83
2022-09-06T03:23:42.609Z,14.88
2022-09-06T03:24:22.544Z,14.82
2022-09-06T03:25:02.621Z,14.90
2022-09-06T03:25:43.553Z,14.80
2022-09-06T03:26:23.689Z,14.87
2022-09-06T03:27:04.587Z,14.77
2022-09-06T03:27:44.608Z,14.73
2022-09-06T03:28:25.599Z,14.77
2022-09-06T03:29:06.045Z,14.79
2022-09-06T03:29:45.547Z,14.81
2022-09-06T03:30:25.608Z,14.85
2022-09-06T03:31:06.584Z,14.81
2022-09-06T03:31:46.635Z,14.77
2022-09-06T03:32:27.568Z,14.79
2022-09-06T03:33:07.628Z,14.67
2022-09-06T03:33:47.561Z,14.68
2022-09-06T03:34:27.640Z,14.59
2022-09-06T03:35:08.537Z,14.74
2022-09-06T03:36:01.613Z,14.70
2022-09-06T03:36:41.543Z,14.68
2022-09-06T03:37:21.601Z,14.71
2022-09-06T03:38:02.581Z,14.58
2022-09-06T03:38:42.609Z,14.60
2022-09-06T03:39:22.552Z,14.68
2022-09-06T03:40:02.747Z,14.68
2022-09-06T03:40:42.568Z,14.54
2022-09-06T03:41:22.634Z,14.60
2022-09-06T03:42:02.520Z,14.63
2022-09-06T03:42:42.586Z,14.44
2022-09-06T03:43:24.629Z,14.63
2022-09-06T03:44:04.575Z,14.58
2022-09-06T03:44:44.540Z,14.55
2022-09-06T03:45:24.620Z,14.37
2022-09-06T03:46:05.588Z,14.53
2022-09-06T03:46:46.285Z,14.58
2022-09-06T03:47:27.529Z,14.56
2022-09-06T03:48:07.642Z,14.61
2022-09-06T03:48:48.574Z,14.58
2022-09-06T03:49:28.619Z,14.55
2022-09-06T03:50:08.525Z,14.51
2022-09-06T03:50:56.625Z,14.40
2022-09-06T03:51:36.528Z,14.45
2022-09-06T03:52:16.609Z,14.33
2022-09-06T03:52:57.537Z,14.35
2022-09-06T03:53:37.608Z,14.38
2022-09-06T03:54:18.552Z,14.39
2022-09-06T03:54:58.590Z,14.32
2022-09-06T03:55:38.515Z,14.32
2022-09-06T03:56:18.584Z,14.35
2022-09-06T03:56:58.526Z,14.29
2022-09-06T03:57:38.640Z,14.38
2022-09-06T03:58:19.527Z,14.40
2022-09-06T03:58:59.737Z,14.41
2022-09-06T03:59:40.565Z,14.43
2022-09-06T04:00:21.570Z,14.38
2022-09-06T04:01:13.574Z,14.35
2022-09-06T04:01:53.591Z,14.28
2022-09-06T04:02:33.584Z,14.29
2022-09-06T04:03:13.582Z,14.29
2022-09-06T04:03:54.518Z,14.18
2022-09-06T04:04:34.612Z,14.23
2022-09-06T04:05:15.580Z,14.26
2022-09-06T04:05:55.628Z,14.25
2022-09-06T04:06:35.529Z,14.22
2022-09-06T04:07:15.570Z,14.22
2022-09-06T04:07:55.525Z,14.18
2022-09-06T04:08:35.605Z,14.22
2022-09-06T04:09:15.496Z,14.16
2022-09-06T04:09:55.587Z,14.17
2022-09-06T04:10:36.542Z,14.20
2022-09-06T04:11:17.490Z,14.20
2022-09-06T04:11:58.517Z,14.15
2022-09-06T04:12:38.603Z,14.20
2022-09-06T04:13:18.509Z,14.23
2022-09-06T04:13:58.569Z,14.25
2022-09-06T04:14:44.501Z,14.17
2022-09-06T04:15:24.565Z,14.11
2022-09-06T04:16:05.540Z,14.14
2022-09-06T04:16:46.668Z,14.23
2022-09-06T04:17:26.518Z,14.12
2022-09-06T04:18:09.210Z,14.12
2022-09-06T04:18:49.497Z,14.11
2022-09-06T04:19:29.620Z,14.15
2022-09-06T04:20:11.529Z,14.21
2022-09-06T04:20:58.377Z,14.21
2022-09-06T04:21:39.538Z,14.16
2022-09-06T04:22:19.565Z,14.19
2022-09-06T04:23:00.522Z,14.23
2022-09-06T04:23:40.597Z,14.19
2022-09-06T04:24:20.518Z,14.18
2022-09-06T04:25:01.406Z,14.18
2022-09-06T04:25:41.488Z,14.06
2022-09-06T04:26:21.601Z,14.01
2022-09-06T04:27:02.537Z,14.11
2022-09-06T04:27:42.565Z,13.99
2022-09-06T04:28:27.456Z,14.01
2022-09-06T04:29:09.533Z,14.01
2022-09-06T04:29:50.525Z,14.02
2022-09-06T04:30:30.636Z,14.07
2022-09-06T04:31:11.501Z,14.09
2022-09-06T04:31:51.655Z,13.99
2022-09-06T04:32:32.553Z,14.04
2022-09-06T04:33:12.557Z,14.04
2022-09-06T04:33:52.480Z,14.08
2022-09-06T04:34:33.253Z,14.12
2022-09-06T04:35:14.478Z,14.19
2022-09-06T04:36:00.569Z,14.09
2022-09-06T04:36:40.501Z,14.15
2022-09-06T04:37:20.562Z,14.13
2022-09-06T04:38:01.542Z,14.19
2022-09-06T04:38:46.665Z,14.14
2022-09-06T04:39:26.538Z,14.25
2022-09-06T04:40:06.611Z,14.17
2022-09-06T04:40:46.475Z,14.29
2022-09-06T04:41:26.559Z,14.25
2022-09-06T04:42:06.475Z,14.26
2022-09-06T04:42:46.521Z,14.30
2022-09-06T04:43:27.578Z,14.25
2022-09-06T04:44:07.564Z,14.23
2022-09-06T04:44:48.481Z,14.16
2022-09-06T04:45:28.656Z,14.16
2022-09-06T04:46:34.491Z,14.20
2022-09-06T04:47:21.527Z,14.07
2022-09-06T04:48:01.468Z,14.14
2022-09-06T04:48:41.503Z,14.16
2022-09-06T04:49:15.525Z,14.18
2022-09-06T04:50:02.497Z,14.23
2022-09-06T04:50:36.563Z,14.23
2022-09-06T04:51:24.510Z,14.21
2022-09-06T04:51:58.529Z,14.16
2022-09-06T04:52:45.478Z,14.14
2022-09-06T04:53:19.632Z,14.07
2022-09-06T04:54:06.490Z,14.17
2022-09-06T04:54:40.540Z,14.16
2022-09-06T04:55:27.455Z,14.27
2022-09-06T04:56:04.544Z,14.18
2022-09-06T04:56:51.467Z,14.22
2022-09-06T04:57:25.601Z,14.21
2022-09-06T04:58:13.477Z,14.23
2022-09-06T04:58:47.564Z,14.20
2022-09-06T04:59:28.488Z,14.25
2022-09-06T05:00:08.552Z,14.21
2022-09-06T05:00:51.481Z,14.23
2022-09-06T05:01:31.625Z,14.19
2022-09-06T05:02:11.490Z,14.26
2022-09-06T05:02:51.558Z,14.30
2022-09-06T05:03:31.499Z,14.20
2022-09-06T05:04:11.582Z,14.29
2022-09-06T05:04:52.497Z,14.33
2022-09-06T05:05:46.468Z,14.34
2022-09-06T05:06:40.453Z,14.35
2022-09-06T05:07:34.454Z,14.35
2022-09-06T05:08:28.529Z,14.34
2022-09-06T05:09:23.465Z,14.27
2022-09-06T05:10:11.487Z,14.38
2022-09-06T05:10:45.517Z,14.38
2022-09-06T05:11:32.473Z,14.44
2022-09-06T05:12:06.519Z,14.38
2022-09-06T05:12:58.456Z,14.32
2022-09-06T05:13:32.522Z,14.35
2022-09-06T05:14:19.451Z,14.50
2022-09-06T05:14:53.504Z,14.46
2022-09-06T05:15:34.492Z,14.37
2022-09-06T05:16:15.586Z,14.38
2022-09-06T05:16:56.498Z,14.44
2022-09-06T05:17:37.580Z,14.49
2022-09-06T05:18:17.465Z,14.47
2022-09-06T05:18:57.509Z,14.54
2022-09-06T05:19:37.431Z,14.57
2022-09-06T05:20:18.546Z,14.51
2022-09-06T05:21:00.466Z,14.56
2022-09-06T05:21:41.049Z,14.60
2022-09-06T05:22:21.461Z,14.58
2022-09-06T05:23:01.694Z,14.58
2022-09-06T05:23:41.469Z,14.61
2022-09-06T05:24:21.509Z,14.59
2022-09-06T05:25:01.449Z,14.67
2022-09-06T05:25:41.516Z,14.66
2022-09-06T05:26:22.474Z,14.65
2022-09-06T05:27:04.403Z,14.72
2022-09-06T05:27:44.438Z,14.70
2022-09-06T05:28:25.641Z,14.71
2022-09-06T05:29:05.444Z,14.73
2022-09-06T05:29:46.564Z,14.68
2022-09-06T05:30:26.448Z,14.66
2022-09-06T05:31:36.494Z,14.71
2022-09-06T05:32:30.433Z,14.69
2022-09-06T05:33:35.422Z,14.77
2022-09-06T05:34:29.449Z,14.72
2022-09-06T05:35:23.468Z,14.79
2022-09-06T05:36:21.448Z,14.78
2022-09-06T05:37:02.501Z,14.84
2022-09-06T05:37:42.508Z,14.89
2022-09-06T05:38:22.456Z,14.84
2022-09-06T05:39:03.506Z,14.92
2022-09-06T05:39:43.459Z,14.86
2022-09-06T05:40:23.489Z,14.93
2022-09-06T05:41:03.428Z,14.95
2022-09-06T05:41:44.084Z,14.98
2022-09-06T05:42:24.473Z,15.02
2022-09-06T05:43:04.519Z,14.94
2022-09-06T05:43:44.428Z,15.05
2022-09-06T05:44:24.599Z,15.04
2022-09-06T05:45:04.422Z,15.00
2022-09-06T05:45:45.344Z,15.06
2022-09-06T05:46:26.430Z,15.01
2022-09-06T05:47:06.536Z,15.03
2022-09-06T05:47:46.507Z,15.10
2022-09-06T05:48:26.521Z,15.14
2022-09-06T05:49:11.435Z,15.16
2022-09-06T05:49:57.353Z,15.14
2022-09-06T05:50:37.410Z,15.07
2022-09-06T05:51:31.424Z,15.10
2022-09-06T05:52:26.425Z,15.14
2022-09-06T05:53:06.441Z,15.12
2022-09-06T05:53:51.502Z,15.16
2022-09-06T05:54:31.433Z,15.19
2022-09-06T05:55:12.561Z,15.19
2022-09-06T05:55:52.432Z,15.25
2022-09-06T05:56:32.521Z,15.31
2022-09-06T05:57:12.412Z,15.26
2022-09-06T05:57:52.511Z,15.31
2022-09-06T05:58:32.448Z,15.32
2022-09-06T05:59:12.468Z,15.24
2022-09-06T05:59:52.402Z,15.24
2022-09-06T06:00:32.490Z,15.22
2022-09-06T06:01:29.489Z,15.30
2022-09-06T06:02:09.632Z,15.36
2022-09-06T06:02:49.458Z,15.33
2022-09-06T06:03:29.475Z,15.32
2022-09-06T06:04:11.428Z,15.36
2022-09-06T06:04:52.094Z,15.40
2022-09-06T06:05:32.402Z,15.40
2022-09-06T06:06:12.473Z,15.39
2022-09-06T06:06:53.398Z,15.47
2022-09-06T06:07:33.508Z,15.51
2022-09-06T06:08:13.401Z,15.52
2022-09-06T06:08:53.496Z,15.57
2022-09-06T06:09:34.428Z,15.57
2022-09-06T06:10:16.070Z,15.56
2022-09-06T06:10:56.415Z,15.54
2022-09-06T06:11:37.553Z,15.62
2022-09-06T06:12:17.399Z,15.56
2022-09-06T06:12:57.657Z,15.69
2022-09-06T06:13:41.386Z,15.73
2022-09-06T06:14:21.486Z,15.70
2022-09-06T06:15:02.459Z,15.77
2022-09-06T06:15:44.477Z,15.79
2022-09-06T06:16:28.474Z,15.80
2022-09-06T06:17:09.522Z,15.81
2022-09-06T06:17:49.398Z,15.77
2022-09-06T06:18:29.613Z,15.76
2022-09-06T06:19:09.391Z,15.71
2022-09-06T06:19:49.523Z,15.79
2022-09-06T06:20:30.439Z,15.78
2022-09-06T06:21:24.518Z,15.80
2022-09-06T06:22:05.396Z,15.72
2022-09-06T06:22:45.474Z,15.79
2022-09-06T06:23:25.397Z,15.88
2022-09-06T06:24:08.457Z,15.92
2022-09-06T06:24:49.380Z,15.94
2022-09-06T06:25:29.454Z,15.85
2022-09-06T06:26:10.416Z,15.96
2022-09-06T06:26:50.447Z,15.99
2022-09-06T06:27:30.401Z,15.96
2022-09-06T06:28:10.496Z,15.97
2022-09-06T06:28:50.394Z,15.98
2022-09-06T06:29:30.460Z,15.94
2022-09-06T06:30:15.236Z,16.03
2022-09-06T06:30:58.465Z,16.02
2022-09-06T06:31:40.448Z,16.07
2022-09-06T06:32:20.446Z,16.00
2022-09-06T06:33:00.374Z,16.11
2022-09-06T06:33:41.592Z,16.11
2022-09-06T06:34:22.381Z,16.13
2022-09-06T06:35:02.519Z,16.15
2022-09-06T06:35:42.389Z,16.21
2022-09-06T06:36:22.574Z,16.25
2022-09-06T06:37:03.408Z,16.26
2022-09-06T06:37:44.614Z,16.24
2022-09-06T06:38:24.383Z,16.24
2022-09-06T06:39:05.526Z,16.32
2022-09-06T06:39:45.414Z,16.31
2022-09-06T06:40:25.463Z,16.31
2022-09-06T06:41:07.196Z,16.38
2022-09-06T06:41:49.192Z,16.40
2022-09-06T06:42:30.405Z,16.44
2022-09-06T06:43:11.443Z,16.47
2022-09-06T06:43:52.378Z,16.53
2022-09-06T06:44:32.428Z,16.42
2022-09-06T06:45:13.373Z,16.49
2022-09-06T06:45:56.458Z,16.58
2022-09-06T06:46:40.398Z,16.63
2022-09-06T06:47:20.473Z,16.62
2022-09-06T06:48:01.476Z,16.61
2022-09-06T06:48:45.501Z,16.67
2022-09-06T06:49:25.361Z,16.72
2022-09-06T06:50:05.442Z,16.77
2022-09-06T06:50:45.361Z,16.80
2022-09-06T06:51:28.214Z,16.78
2022-09-06T06:52:09.395Z,16.82
2022-09-06T06:52:49.395Z,16.77
2022-09-06T06:53:30.412Z,16.86
2022-09-06T06:54:12.508Z,16.81
2022-09-06T06:54:53.407Z,16.90
2022-09-06T06:55:33.421Z,16.94
2022-09-06T06:56:42.351Z,16.97
2022-09-06T06:57:22.425Z,17.03
2022-09-06T06:58:02.340Z,17.02
2022-09-06T06:58:49.453Z,16.96
2022-09-06T06:59:44.387Z,17.11
2022-09-06T07:00:38.381Z,17.08
2022-09-06T07:01:34.522Z,17.11
2022-09-06T07:02:28.464Z,17.07
2022-09-06T07:03:24.350Z,17.15
2022-09-06T07:04:12.391Z,17.16
2022-09-06T07:04:46.425Z,17.08
2022-09-06T07:07:38.039Z,17.09
2022-09-06T07:08:14.432Z,17.10
2022-09-06T07:09:04.340Z,17.19
2022-09-06T07:10:59.348Z,17.20
2022-09-06T07:11:53.332Z,17.30
2022-09-06T07:12:47.371Z,17.36
2022-09-06T07:13:41.364Z,17.36
2022-09-06T07:14:35.350Z,17.35
2022-09-06T07:15:16.380Z,17.36
2022-09-06T07:15:57.038Z,17.41
2022-09-06T07:16:38.394Z,17.41
2022-09-06T07:17:18.412Z,17.35
2022-09-06T07:17:59.343Z,17.46
2022-09-06T07:18:42.387Z,17.51
2022-09-06T07:20:29.790Z,17.50
2022-09-06T07:22:30.363Z,17.59
2022-09-06T07:24:38.351Z,17.65
2022-09-06T07:25:32.358Z,17.72
2022-09-06T07:26:35.426Z,17.61
2022-09-06T07:28:43.550Z,17.75
2022-09-06T07:29:39.335Z,17.90
2022-09-06T07:30:33.355Z,17.77
2022-09-06T07:32:42.342Z,17.77
2022-09-06T07:33:37.346Z,17.66
2022-09-06T07:34:32.331Z,17.60
2022-09-06T07:35:27.364Z,17.57
2022-09-06T07:36:11.480Z,17.66
2022-09-06T07:36:52.460Z,17.70
2022-09-06T07:37:32.312Z,17.63
2022-09-06T07:38:12.410Z,17.74
2022-09-06T07:38:57.334Z,17.78
2022-09-06T07:39:37.453Z,17.82
2022-09-06T07:40:18.335Z,17.87
2022-09-06T07:41:04.437Z,17.94
2022-09-06T07:41:44.356Z,17.92
2022-09-06T07:42:24.373Z,18.01
2022-09-06T07:43:07.318Z,18.01
2022-09-06T07:43:47.561Z,18.01
2022-09-06T07:44:27.302Z,17.99
2022-09-06T07:45:07.469Z,18.04
2022-09-06T07:45:48.329Z,18.07
2022-09-06T07:46:28.404Z,18.16
2022-09-06T07:48:12.374Z,18.21
2022-09-06T07:48:53.320Z,18.10
2022-09-06T07:49:34.835Z,18.22
2022-09-06T07:51:19.433Z,18.31
2022-09-06T07:51:59.438Z,18.34
2022-09-06T07:53:33.652Z,18.25
2022-09-06T07:54:36.628Z,18.31
2022-09-06T07:55:11.395Z,18.34
2022-09-06T07:55:58.308Z,18.31
2022-09-06T07:56:32.368Z,18.33
2022-09-06T07:57:19.306Z,18.40
2022-09-06T07:58:00.334Z,18.35
2022-09-06T07:58:54.339Z,18.50
2022-09-06T07:59:48.353Z,18.50
2022-09-06T08:00:42.377Z,18.55
2022-09-06T08:01:49.417Z,18.63
2022-09-06T08:02:43.297Z,18.59
2022-09-06T08:03:23.410Z,18.52
2022-09-06T08:04:13.877Z,18.61
2022-09-06T08:04:54.330Z,18.54
2022-09-06T08:09:23.976Z,18.91
2022-09-06T08:10:04.305Z,18.77
2022-09-06T08:10:44.392Z,18.94
2022-09-06T08:11:25.300Z,18.94
2022-09-06T08:12:07.423Z,18.99
2022-09-06T08:12:47.292Z,18.99
2022-09-06T08:13:34.322Z,19.05
2022-09-06T08:14:28.296Z,19.00
2022-09-06T08:15:23.289Z,19.03
2022-09-06T08:16:23.374Z,19.05
2022-09-06T08:17:17.297Z,19.05
2022-09-06T08:18:11.341Z,18.98
2022-09-06T08:19:01.322Z,18.97
2022-09-06T08:19:35.411Z,19.17
2022-09-06T08:20:23.280Z,19.18
2022-09-06T08:20:57.399Z,19.21
2022-09-06T08:21:45.307Z,19.24
2022-09-06T08:22:19.353Z,19.26
2022-09-06T08:23:08.270Z,19.26
2022-09-06T08:23:42.790Z,19.26
2022-09-06T08:24:23.329Z,19.31
2022-09-06T08:25:03.377Z,19.21
2022-09-06T08:25:44.310Z,19.25
2022-09-06T08:26:27.412Z,19.28
2022-09-06T08:27:08.304Z,19.27
2022-09-06T08:27:48.350Z,19.36
2022-09-06T08:28:29.003Z,19.35
2022-09-06T08:29:12.389Z,19.41
2022-09-06T08:29:52.321Z,19.43
2022-09-06T08:30:32.369Z,19.41
2022-09-06T08:31:22.414Z,19.36
2022-09-06T08:32:02.428Z,19.49
2022-09-06T08:32:43.284Z,19.52
2022-09-06T08:33:25.662Z,19.52
2022-09-06T08:34:07.276Z,19.54
2022-09-06T08:34:47.339Z,19.53
2022-09-06T08:35:27.293Z,19.63
2022-09-06T08:36:07.383Z,19.68
2022-09-06T08:36:48.270Z,19.65
2022-09-06T08:37:28.349Z,19.72
2022-09-06T08:38:08.277Z,19.72
2022-09-06T08:38:48.386Z,19.76
2022-09-06T08:39:28.301Z,19.69
2022-09-06T08:40:09.414Z,19.74
2022-09-06T08:40:49.294Z,19.69
2022-09-06T08:42:05.394Z,19.73
2022-09-06T08:42:46.274Z,19.63
2022-09-06T08:43:28.535Z,19.72
2022-09-06T08:45:15.360Z,19.83
2022-09-06T08:46:03.308Z,19.84
2022-09-06T08:46:52.407Z,19.95
2022-09-06T08:47:32.269Z,19.96
2022-09-06T08:48:12.331Z,20.00
2022-09-06T08:48:52.250Z,20.00
2022-09-06T08:49:36.315Z,20.05
2022-09-06T08:50:17.277Z,20.08
2022-09-06T08:51:40.321Z,20.12
2022-09-06T08:53:17.291Z,20.02
2022-09-06T08:54:47.269Z,20.04
2022-09-06T08:55:51.269Z,20.14
2022-09-06T08:56:54.371Z,19.98
2022-09-06T08:58:08.277Z,20.22
2022-09-06T08:59:19.281Z,20.24
2022-09-06T09:00:20.281Z,20.27
2022-09-06T09:01:23.268Z,20.30
2022-09-06T09:02:16.392Z,20.34
2022-09-06T09:03:01.328Z,20.36
2022-09-06T09:03:50.260Z,20.43
2022-09-06T09:04:28.321Z,20.43
2022-09-06T09:05:37.244Z,20.48
2022-09-06T09:06:14.317Z,20.51
2022-09-06T09:07:07.248Z,20.46
2022-09-06T09:08:03.295Z,20.48
2022-09-06T09:09:22.259Z,20.41
2022-09-06T09:10:56.316Z,20.52
2022-09-06T09:11:50.269Z,20.37
2022-09-06T09:12:46.266Z,20.59
2022-09-06T09:13:35.289Z,20.61
2022-09-06T09:14:28.349Z,20.60
2022-09-06T09:15:18.230Z,20.54
2022-09-06T09:15:59.357Z,20.55
2022-09-06T09:16:40.283Z,20.59
2022-09-06T09:17:28.328Z,20.55
2022-09-06T09:18:08.247Z,20.46
2022-09-06T09:18:59.296Z,20.62
2022-09-06T09:19:54.272Z,20.61
2022-09-06T09:20:48.257Z,20.66
2022-09-06T09:21:47.243Z,20.66
2022-09-06T09:22:41.269Z,20.68
2022-09-06T09:23:35.253Z,20.73
2022-09-06T09:24:23.273Z,20.76
2022-09-06T09:24:58.934Z,20.62
2022-09-06T09:25:48.264Z,20.83
2022-09-06T09:26:22.297Z,20.85
2022-09-06T09:27:20.249Z,20.81
2022-09-06T09:27:57.755Z,20.91
2022-09-06T09:28:45.231Z,20.92
2022-09-06T09:29:26.764Z,20.93
2022-09-06T09:31:27.307Z,20.95
2022-09-06T09:32:21.258Z,20.99
2022-09-06T09:33:15.253Z,21.02
2022-09-06T09:34:11.240Z,21.02
2022-09-06T09:35:05.218Z,21.08
2022-09-06T09:35:48.298Z,21.02
2022-09-06T09:36:28.313Z,21.07
2022-09-06T09:37:48.471Z,21.06
2022-09-06T09:38:52.941Z,21.07
2022-09-06T09:39:45.326Z,21.14
2022-09-06T09:40:31.365Z,21.21
2022-09-06T09:41:14.263Z,21.20
2022-09-06T09:41:57.298Z,21.23
2022-09-06T09:42:44.252Z,21.14
2022-09-06T09:43:40.346Z,21.24
2022-09-06T09:44:25.245Z,21.29
2022-09-06T09:45:06.316Z,21.30
2022-09-06T09:45:49.042Z,21.31
2022-09-06T09:46:29.329Z,21.31
2022-09-06T09:47:03.428Z,21.26
2022-09-06T09:47:50.208Z,21.33
2022-09-06T09:48:34.344Z,21.38
2022-09-06T09:49:34.249Z,21.36
2022-09-06T09:50:08.414Z,21.33
2022-09-06T09:50:56.215Z,21.32
2022-09-06T09:51:39.253Z,21.33
2022-09-06T09:52:45.414Z,21.39
2022-09-06T09:53:39.333Z,21.37
2022-09-06T09:54:45.376Z,21.33
2022-09-06T09:55:40.228Z,21.33
2022-09-06T09:56:56.306Z,21.38
2022-09-06T09:58:01.222Z,21.35
2022-09-06T09:58:55.210Z,21.45
2022-09-06T09:59:57.242Z,21.49
2022-09-06T10:00:54.230Z,21.57
2022-09-06T10:01:48.237Z,21.56
2022-09-06T10:02:40.251Z,21.57
2022-09-06T10:03:26.366Z,21.56
2022-09-06T10:05:20.268Z,21.55
2022-09-06T10:07:21.263Z,21.58
2022-09-06T10:08:03.216Z,21.63
2022-09-06T10:08:48.274Z,21.67
2022-09-06T10:09:44.214Z,21.67